Time;durP1;ratioP1;P1;durP2;ratioP2;P2;SDS_P1;SDS_P2;PMS_P1;PMS_P2;Temp;Humidity;BMP_temperature;BMP_pressure;BME280_temperature;BME280_humidity;BME280_pressure;Samples;Min_cycle;Max_cycle;Signal;HPM_P1;HPM_P2
2023/02/12 00:00:46;;;;;;;5.67;4.30;;;;;;;;;;5012024;28;20101;-67
2023/02/12 00:03:12;;;;;;;5.78;4.50;;;;;;;;;;5010135;28;20289;-65
2023/02/12 00:05:37;;;;;;;6.43;4.35;;;;;;;;;;5009044;28;20042;-66
2023/02/12 00:08:03;;;;;;;7.50;4.88;;;;;;;;;;5009261;28;20048;-61
2023/02/12 00:10:28;;;;;;;5.45;4.32;;;;;;;;;;5008665;28;20042;-65
2023/02/12 00:12:53;;;;;;;6.10;4.80;;;;;;;;;;5008835;28;20034;-66
2023/02/12 00:15:18;;;;;;;7.93;4.63;;;;;;;;;;5008613;28;20328;-67
2023/02/12 00:17:44;;;;;;;6.32;4.63;;;;;;;;;;5008268;28;20817;-61
2023/02/12 00:20:09;;;;;;;5.82;4.43;;;;;;;;;;5010553;28;20038;-65
2023/02/12 00:22:34;;;;;;;5.38;4.10;;;;;;;;;;5009941;28;20041;-66
2023/02/12 00:25:00;;;;;;;6.47;4.17;;;;;;;;;;5008747;28;20073;-65
2023/02/12 00:27:25;;;;;;;5.22;4.10;;;;;;;;;;5008117;28;20308;-67
2023/02/12 00:29:50;;;;;;;5.23;4.13;;;;;;;;;;5008130;28;20093;-61
2023/02/12 00:32:19;;;;;;;5.03;4.13;;;;;;;;;;5007265;28;20674;-63
2023/02/12 00:34:47;;;;;;;5.57;4.45;;;;;;;;;;4997490;28;20720;-66
2023/02/12 00:37:12;;;;;;;5.75;4.20;;;;;;;;;;5008931;28;20037;-66
2023/02/12 00:39:37;;;;;;;6.65;4.60;;;;;;;;;;5008064;28;20470;-60
2023/02/12 00:42:03;;;;;;;5.70;4.20;;;;;;;;;;4991562;28;20042;-60
2023/02/12 00:44:28;;;;;;;5.38;4.20;;;;;;;;;;5005786;28;20631;-67
2023/02/12 00:46:54;;;;;;;6.28;4.57;;;;;;;;;;5010042;28;20037;-64
2023/02/12 00:49:19;;;;;;;6.25;4.85;;;;;;;;;;5009377;28;20129;-67
2023/02/12 00:51:44;;;;;;;5.47;4.60;;;;;;;;;;5007876;28;20475;-66
2023/02/12 00:54:10;;;;;;;5.82;4.25;;;;;;;;;;4990258;28;20177;-64
2023/02/12 00:56:35;;;;;;;6.50;4.45;;;;;;;;;;5007661;28;20042;-66
2023/02/12 00:59:00;;;;;;;5.15;4.05;;;;;;;;;;5008590;28;20486;-63
2023/02/12 01:01:25;;;;;;;6.35;4.47;;;;;;;;;;5008399;28;20058;-65
2023/02/12 01:03:51;;;;;;;5.63;4.07;;;;;;;;;;5009874;28;20585;-63
2023/02/12 01:06:16;;;;;;;5.68;4.45;;;;;;;;;;5008990;28;20521;-64
2023/02/12 01:08:41;;;;;;;6.05;4.40;;;;;;;;;;5008191;28;20045;-66
2023/02/12 01:11:06;;;;;;;6.05;4.70;;;;;;;;;;5008784;28;20485;-65
2023/02/12 01:13:32;;;;;;;6.40;4.03;;;;;;;;;;5007997;28;20042;-64
2023/02/12 01:16:01;;;;;;;6.97;4.93;;;;;;;;;;5006929;28;20044;-67
2023/02/12 01:18:26;;;;;;;6.13;4.53;;;;;;;;;;5009444;28;20022;-68
2023/02/12 01:20:51;;;;;;;5.37;4.33;;;;;;;;;;5008792;28;20513;-62
2023/02/12 01:23:16;;;;;;;6.22;4.70;;;;;;;;;;5008046;28;21056;-60
2023/02/12 01:25:42;;;;;;;5.37;4.13;;;;;;;;;;5008587;28;20097;-64
2023/02/12 01:28:08;;;;;;;6.00;3.97;;;;;;;;;;5008695;28;20300;-66
2023/02/12 01:30:34;;;;;;;6.65;4.65;;;;;;;;;;5004836;28;20046;-64
2023/02/12 01:32:59;;;;;;;5.60;4.23;;;;;;;;;;5006990;28;20472;-66
2023/02/12 01:35:24;;;;;;;5.95;3.83;;;;;;;;;;4991062;28;20286;-67
2023/02/12 01:37:50;;;;;;;6.00;4.40;;;;;;;;;;5008345;28;20037;-64
2023/02/12 01:40:15;;;;;;;5.53;4.07;;;;;;;;;;5000296;28;20029;-65
2023/02/12 01:42:40;;;;;;;6.38;4.75;;;;;;;;;;5006707;28;20272;-67
2023/02/12 01:45:11;;;;;;;7.43;4.38;;;;;;;;;;5006754;28;20033;-66
2023/02/12 01:47:37;;;;;;;5.72;4.40;;;;;;;;;;5008375;28;20057;-66
2023/02/12 01:50:02;;;;;;;5.13;4.35;;;;;;;;;;5006061;28;20511;-66
2023/02/12 01:52:28;;;;;;;6.18;4.30;;;;;;;;;;5005929;28;20068;-65
2023/02/12 01:54:54;;;;;;;5.35;4.35;;;;;;;;;;5020231;28;20025;-63
2023/02/12 01:57:19;;;;;;;5.82;4.50;;;;;;;;;;5006618;28;20025;-65
2023/02/12 01:59:45;;;;;;;5.85;4.55;;;;;;;;;;5008150;28;20036;-60
2023/02/12 02:02:10;;;;;;;5.65;4.22;;;;;;;;;;5007196;28;20067;-65
2023/02/12 02:04:49;;;;;;;5.43;4.47;;;;;;;;;;4989297;28;20032;-66
2023/02/12 02:07:14;;;;;;;5.20;4.20;;;;;;;;;;5005431;28;20269;-66
2023/02/12 02:09:39;;;;;;;5.43;4.40;;;;;;;;;;5005541;28;20132;-65
2023/02/12 02:14:49;;;;;;;5.78;4.57;;;;;;;;;;4997111;28;20324;-62
2023/02/12 02:17:33;;;;;;;5.78;4.05;;;;;;;;;;5006583;28;20136;-65
2023/02/12 02:20:07;;;;;;;6.05;4.50;;;;;;;;;;5006741;28;20030;-66
2023/02/12 02:22:36;;;;;;;5.60;4.18;;;;;;;;;;5005065;28;20049;-65
2023/02/12 02:25:08;;;;;;;5.50;4.28;;;;;;;;;;5002897;28;20042;-64
2023/02/12 02:27:59;;;;;;;5.75;4.45;;;;;;;;;;5022601;28;20061;-63
2023/02/12 02:30:28;;;;;;;5.60;4.45;;;;;;;;;;4981720;28;20172;-66
2023/02/12 02:32:53;;;;;;;5.70;4.22;;;;;;;;;;5005120;28;20061;-64
2023/02/12 02:35:27;;;;;;;5.83;4.73;;;;;;;;;;5007277;28;20057;-65
2023/02/12 02:37:55;;;;;;;5.32;4.20;;;;;;;;;;5006008;28;20554;-66
2023/02/12 02:40:25;;;;;;;5.53;4.15;;;;;;;;;;4995842;28;20522;-61
2023/02/12 02:43:10;;;;;;;5.97;4.35;;;;;;;;;;5006159;28;20042;-61
2023/02/12 02:45:45;;;;;;;5.88;4.30;;;;;;;;;;5007326;28;20045;-65
2023/02/12 02:48:15;;;;;;;5.60;4.50;;;;;;;;;;4998634;28;20046;-65
2023/02/12 02:50:43;;;;;;;5.25;4.20;;;;;;;;;;5005777;28;20038;-68
2023/02/12 02:53:12;;;;;;;5.40;4.30;;;;;;;;;;5006911;28;20041;-64
2023/02/12 02:55:39;;;;;;;5.60;4.17;;;;;;;;;;4989386;28;20517;-63
2023/02/12 02:58:11;;;;;;;6.10;4.70;;;;;;;;;;5002740;28;20053;-67
2023/02/12 03:00:37;;;;;;;5.97;4.78;;;;;;;;;;4974272;28;20455;-67
2023/02/12 03:03:17;;;;;;;5.97;4.10;;;;;;;;;;5005975;28;20066;-66
2023/02/12 03:05:43;;;;;;;5.68;4.45;;;;;;;;;;4974642;28;20142;-64
2023/02/12 03:08:22;;;;;;;6.18;4.40;;;;;;;;;;5001866;28;20153;-60
2023/02/12 03:10:48;;;;;;;5.35;4.10;;;;;;;;;;4993089;28;20050;-67
2023/02/12 03:13:21;;;;;;;5.82;4.40;;;;;;;;;;5005739;28;20040;-61
2023/02/12 03:15:54;;;;;;;5.30;4.38;;;;;;;;;;5006568;28;20111;-62
2023/02/12 03:18:21;;;;;;;5.90;4.28;;;;;;;;;;5007107;28;20148;-66
2023/02/12 03:20:48;;;;;;;7.20;4.70;;;;;;;;;;4985651;28;20511;-63
2023/02/12 03:23:15;;;;;;;5.97;4.45;;;;;;;;;;4990992;28;20026;-67
2023/02/12 03:25:43;;;;;;;5.15;4.05;;;;;;;;;;5006016;28;20113;-66
2023/02/12 03:28:10;;;;;;;5.88;4.50;;;;;;;;;;5005808;28;20135;-58
2023/02/12 03:30:41;;;;;;;6.20;4.57;;;;;;;;;;5003930;28;20042;-65
2023/02/12 03:33:11;;;;;;;5.65;4.32;;;;;;;;;;5004490;28;20438;-65
2023/02/12 03:35:40;;;;;;;5.97;4.63;;;;;;;;;;5005380;28;20033;-61
2023/02/12 03:38:06;;;;;;;6.00;4.57;;;;;;;;;;5006953;28;20044;-60
2023/02/12 03:40:39;;;;;;;6.03;4.53;;;;;;;;;;5006795;28;20026;-59
2023/02/12 03:43:07;;;;;;;5.70;4.57;;;;;;;;;;5004600;28;20355;-65
2023/02/12 03:45:41;;;;;;;6.50;4.80;;;;;;;;;;5005827;28;20022;-66
2023/02/12 03:48:17;;;;;;;5.20;4.35;;;;;;;;;;5006565;28;20046;-65
2023/02/12 03:51:06;;;;;;;5.40;4.32;;;;;;;;;;5004570;28;20449;-66
2023/02/12 03:53:31;;;;;;;5.30;4.50;;;;;;;;;;4985952;28;20050;-63
2023/02/12 03:56:09;;;;;;;5.37;4.60;;;;;;;;;;5005112;28;20119;-63
2023/02/12 03:58:35;;;;;;;6.70;4.80;;;;;;;;;;5005040;28;20289;-64
2023/02/12 04:01:00;;;;;;;6.10;4.40;;;;;;;;;;4994476;28;20848;-65
2023/02/12 04:03:25;;;;;;;6.20;4.30;;;;;;;;;;5006929;28;20285;-65
2023/02/12 04:05:50;;;;;;;5.63;4.53;;;;;;;;;;5002222;28;20056;-63
2023/02/12 04:08:16;;;;;;;5.57;4.87;;;;;;;;;;5006075;28;20305;-61
2023/02/12 04:10:45;;;;;;;6.90;4.80;;;;;;;;;;5007159;28;20418;-61
2023/02/12 04:13:11;;;;;;;5.53;4.40;;;;;;;;;;4988523;28;20038;-66
2023/02/12 04:15:36;;;;;;;5.40;4.57;;;;;;;;;;5001369;28;20061;-59
2023/02/12 04:18:04;;;;;;;5.73;4.40;;;;;;;;;;5005678;28;20300;-63
2023/02/12 04:20:48;;;;;;;6.20;4.85;;;;;;;;;;5006234;28;20824;-66
2023/02/12 04:23:29;;;;;;;6.30;4.60;;;;;;;;;;5005772;28;20042;-67
2023/02/12 04:26:04;;;;;;;5.35;4.15;;;;;;;;;;5010585;28;20053;-66
2023/02/12 04:28:53;;;;;;;5.43;4.50;;;;;;;;;;5004689;28;20428;-66
2023/02/12 04:31:27;;;;;;;5.72;4.60;;;;;;;;;;4996864;28;20030;-65
2023/02/12 04:34:08;;;;;;;6.82;4.70;;;;;;;;;;5008558;28;20422;-63
2023/02/12 04:36:34;;;;;;;5.82;4.60;;;;;;;;;;5023962;28;20468;-64
2023/02/12 04:39:04;;;;;;;5.05;4.40;;;;;;;;;;4990742;28;20046;-66
2023/02/12 04:41:29;;;;;;;5.63;4.50;;;;;;;;;;5006140;28;20057;-65
2023/02/12 04:43:55;;;;;;;5.07;4.45;;;;;;;;;;4996702;28;20471;-65
2023/02/12 04:46:20;;;;;;;5.87;4.53;;;;;;;;;;5021120;28;20089;-64
2023/02/12 04:48:55;;;;;;;6.33;4.80;;;;;;;;;;5024628;28;20289;-59
2023/02/12 04:51:20;;;;;;;6.95;4.90;;;;;;;;;;5005146;28;20285;-58
2023/02/12 04:53:45;;;;;;;6.20;4.43;;;;;;;;;;5033332;23;20049;-63
2023/02/12 04:56:12;;;;;;;5.57;4.45;;;;;;;;;;5026693;28;20268;-64
2023/02/12 04:58:37;;;;;;;6.63;5.13;;;;;;;;;;5028143;28;20431;-60
2023/02/12 05:01:02;;;;;;;5.88;4.50;;;;;;;;;;5034723;28;20026;-62
2023/02/12 05:03:27;;;;;;;5.90;4.60;;;;;;;;;;5027528;28;20018;-63
2023/02/12 05:05:53;;;;;;;5.67;4.63;;;;;;;;;;5025201;28;20819;-64
2023/02/12 05:08:18;;;;;;;5.90;4.53;;;;;;;;;;5023838;28;20452;-60
2023/02/12 05:10:43;;;;;;;5.53;4.53;;;;;;;;;;5030498;28;20269;-62
2023/02/12 05:13:09;;;;;;;7.03;4.90;;;;;;;;;;5004267;22;20405;-61
2023/02/12 05:15:34;;;;;;;5.60;4.53;;;;;;;;;;4967616;28;20130;-60
2023/02/12 05:17:59;;;;;;;6.00;4.83;;;;;;;;;;4986098;28;20018;-60
2023/02/12 05:20:24;;;;;;;5.93;4.97;;;;;;;;;;4999676;28;20269;-60
2023/02/12 05:22:50;;;;;;;5.70;4.47;;;;;;;;;;4981345;28;20663;-62
2023/02/12 05:25:16;;;;;;;6.60;4.97;;;;;;;;;;4983996;28;20018;-61
2023/02/12 05:27:41;;;;;;;5.63;4.70;;;;;;;;;;4985610;28;20049;-60
2023/02/12 05:30:08;;;;;;;5.50;4.60;;;;;;;;;;5000638;28;20454;-61
2023/02/12 05:32:33;;;;;;;6.30;4.90;;;;;;;;;;4985528;28;20715;-60
2023/02/12 05:34:58;;;;;;;6.45;5.10;;;;;;;;;;4993775;28;20460;-62
2023/02/12 05:37:24;;;;;;;6.13;4.90;;;;;;;;;;4990211;28;20097;-60
2023/02/12 05:39:49;;;;;;;6.50;4.87;;;;;;;;;;4993055;28;20841;-60
2023/02/12 05:42:14;;;;;;;6.22;4.95;;;;;;;;;;4996918;28;20270;-62
2023/02/12 05:44:39;;;;;;;5.87;4.80;;;;;;;;;;4975974;28;20427;-62
2023/02/12 05:47:05;;;;;;;5.60;4.40;;;;;;;;;;5001327;28;20303;-60
2023/02/12 05:49:30;;;;;;;5.45;4.30;;;;;;;;;;5001139;28;20609;-61
2023/02/12 05:51:55;;;;;;;5.97;4.97;;;;;;;;;;5000138;28;20113;-61
2023/02/12 05:54:20;;;;;;;6.53;5.00;;;;;;;;;;5000820;28;20296;-61
2023/02/12 05:56:46;;;;;;;6.47;4.77;;;;;;;;;;4984869;28;20740;-60
2023/02/12 05:59:12;;;;;;;6.40;5.07;;;;;;;;;;4983167;28;20385;-60
2023/02/12 06:01:38;;;;;;;6.35;4.90;;;;;;;;;;4995777;28;20034;-60
2023/02/12 06:04:04;;;;;;;6.40;5.07;;;;;;;;;;4985327;28;20054;-60
2023/02/12 06:06:29;;;;;;;5.82;4.85;;;;;;;;;;4976331;28;20078;-59
2023/02/12 06:08:55;;;;;;;6.07;4.85;;;;;;;;;;4980724;28;20135;-61
2023/02/12 06:11:20;;;;;;;5.95;4.70;;;;;;;;;;4989911;28;20038;-59
2023/02/12 06:13:45;;;;;;;6.53;5.25;;;;;;;;;;4982578;28;20161;-62
2023/02/12 06:16:26;;;;;;;6.88;5.57;;;;;;;;;;4981955;28;20508;-60
2023/02/12 06:18:51;;;;;;;6.57;5.00;;;;;;;;;;4998249;28;20050;-61
2023/02/12 06:21:17;;;;;;;5.53;4.80;;;;;;;;;;4985455;28;20455;-61
2023/02/12 06:23:42;;;;;;;5.20;4.60;;;;;;;;;;4983306;28;20512;-60
2023/02/12 06:26:07;;;;;;;6.47;4.93;;;;;;;;;;4984358;28;20126;-63
2023/02/12 06:28:32;;;;;;;5.50;4.70;;;;;;;;;;4982153;28;20129;-61
2023/02/12 06:30:58;;;;;;;5.50;4.60;;;;;;;;;;4992521;28;20077;-58
2023/02/12 06:33:23;;;;;;;6.37;4.97;;;;;;;;;;4990129;28;20286;-60
2023/02/12 06:35:48;;;;;;;6.43;5.00;;;;;;;;;;4996940;28;20301;-58
2023/02/12 06:38:14;;;;;;;6.47;4.95;;;;;;;;;;4996954;28;20797;-61
2023/02/12 06:40:39;;;;;;;7.18;5.50;;;;;;;;;;4991448;28;20756;-63
2023/02/12 06:43:04;;;;;;;6.17;4.70;;;;;;;;;;4989239;28;20109;-61
2023/02/12 06:45:29;;;;;;;6.67;4.87;;;;;;;;;;4983617;28;20421;-62
2023/02/12 06:47:55;;;;;;;6.40;5.43;;;;;;;;;;4996160;28;20284;-60
2023/02/12 06:50:20;;;;;;;6.68;5.20;;;;;;;;;;4984057;28;20368;-60
2023/02/12 06:52:45;;;;;;;5.47;4.43;;;;;;;;;;4983049;28;20419;-61
2023/02/12 06:55:10;;;;;;;6.53;5.25;;;;;;;;;;4997592;28;20317;-61
2023/02/12 06:57:36;;;;;;;6.47;5.10;;;;;;;;;;4981870;28;20054;-59
2023/02/12 07:00:01;;;;;;;5.10;4.53;;;;;;;;;;4990702;28;20294;-60
2023/02/12 07:02:26;;;;;;;5.75;4.47;;;;;;;;;;4997827;28;20026;-62
2023/02/12 07:04:52;;;;;;;6.13;5.10;;;;;;;;;;4984119;28;20066;-61
2023/02/12 07:07:17;;;;;;;5.97;4.68;;;;;;;;;;4983568;28;20658;-61
2023/02/12 07:09:42;;;;;;;6.43;5.13;;;;;;;;;;4987586;28;20125;-62
2023/02/12 07:12:07;;;;;;;6.90;5.07;;;;;;;;;;4983968;28;20841;-61
2023/02/12 07:14:32;;;;;;;6.00;4.63;;;;;;;;;;4986645;28;20495;-62
2023/02/12 07:16:58;;;;;;;6.07;4.83;;;;;;;;;;4986820;28;20686;-61
2023/02/12 07:19:23;;;;;;;6.32;4.95;;;;;;;;;;4983641;28;20308;-61
2023/02/12 07:21:48;;;;;;;5.25;4.53;;;;;;;;;;4995442;28;20125;-60
2023/02/12 07:24:14;;;;;;;5.23;4.50;;;;;;;;;;4983889;28;20042;-60
2023/02/12 07:26:39;;;;;;;6.20;4.90;;;;;;;;;;4998670;28;20278;-60
2023/02/12 07:29:04;;;;;;;6.07;4.90;;;;;;;;;;4993951;28;20053;-61
2023/02/12 07:31:30;;;;;;;5.65;4.63;;;;;;;;;;4982940;28;20389;-60
2023/02/12 07:33:55;;;;;;;7.20;4.80;;;;;;;;;;4994408;28;20031;-59
2023/02/12 07:36:21;;;;;;;5.80;4.60;;;;;;;;;;4993646;28;20031;-60
2023/02/12 07:38:46;;;;;;;5.40;4.45;;;;;;;;;;4989549;28;20486;-60
2023/02/12 07:41:14;;;;;;;5.95;4.78;;;;;;;;;;4981229;28;20133;-61
2023/02/12 07:43:40;;;;;;;5.85;4.55;;;;;;;;;;4979052;28;20050;-59
2023/02/12 07:46:12;;;;;;;6.00;4.72;;;;;;;;;;4983210;28;20137;-62
2023/02/12 07:48:37;;;;;;;5.95;4.30;;;;;;;;;;4996757;28;20491;-62
2023/02/12 07:51:06;;;;;;;5.97;4.57;;;;;;;;;;4998543;28;20034;-61
2023/02/12 07:53:31;;;;;;;7.45;4.85;;;;;;;;;;4985707;28;20058;-60
2023/02/12 07:56:03;;;;;;;6.25;4.75;;;;;;;;;;4999027;28;20066;-62
2023/02/12 07:58:29;;;;;;;5.38;4.13;;;;;;;;;;4999837;28;20133;-59
2023/02/12 08:00:54;;;;;;;6.60;4.83;;;;;;;;;;4999091;28;20466;-62
2023/02/12 08:03:19;;;;;;;5.47;4.30;;;;;;;;;;4999469;28;20281;-61
2023/02/12 08:05:44;;;;;;;5.47;4.57;;;;;;;;;;4983184;28;20300;-62
2023/02/12 08:08:10;;;;;;;6.00;4.53;;;;;;;;;;4988687;28;20794;-62
2023/02/12 08:10:35;;;;;;;5.47;4.72;;;;;;;;;;5003330;28;20151;-65
2023/02/12 08:13:00;;;;;;;6.13;4.80;;;;;;;;;;4987876;28;20045;-63
2023/02/12 08:15:25;;;;;;;5.95;4.65;;;;;;;;;;4983470;28;20381;-63
2023/02/12 08:17:51;;;;;;;5.30;4.20;;;;;;;;;;4969095;28;20515;-64
2023/02/12 08:20:16;;;;;;;6.03;4.90;;;;;;;;;;4970104;28;20298;-59
2023/02/12 08:22:41;;;;;;;5.55;4.30;;;;;;;;;;4985942;28;20301;-59
2023/02/12 08:25:07;;;;;;;6.57;4.93;;;;;;;;;;4990017;28;20086;-60
2023/02/12 08:27:32;;;;;;;4.68;3.90;;;;;;;;;;4973312;28;20030;-59
2023/02/12 08:29:57;;;;;;;5.17;4.47;;;;;;;;;;4969793;28;20042;-61
2023/02/12 08:32:23;;;;;;;5.13;4.37;;;;;;;;;;5003194;28;20349;-63
2023/02/12 08:34:48;;;;;;;6.13;4.47;;;;;;;;;;4982671;28;20748;-62
2023/02/12 08:37:13;;;;;;;5.93;4.77;;;;;;;;;;4986760;28;20070;-61
2023/02/12 08:39:38;;;;;;;8.10;5.18;;;;;;;;;;4985703;28;20774;-60
2023/02/12 08:42:04;;;;;;;5.10;4.32;;;;;;;;;;4995395;28;20134;-60
2023/02/12 08:44:30;;;;;;;6.55;4.75;;;;;;;;;;4999240;28;20194;-62
2023/02/12 08:46:55;;;;;;;6.07;4.50;;;;;;;;;;4986808;28;20155;-62
2023/02/12 08:49:21;;;;;;;5.38;4.32;;;;;;;;;;4997521;28;20469;-61
2023/02/12 08:51:47;;;;;;;5.45;4.40;;;;;;;;;;4976838;28;20030;-62
2023/02/12 08:54:13;;;;;;;6.10;4.72;;;;;;;;;;4984600;28;20062;-62
2023/02/12 08:56:39;;;;;;;6.68;4.93;;;;;;;;;;4982792;28;20042;-60
2023/02/12 08:59:04;;;;;;;7.10;4.57;;;;;;;;;;4985215;28;20045;-60
2023/02/12 09:01:30;;;;;;;5.32;4.30;;;;;;;;;;4986742;28;20142;-63
2023/02/12 09:03:55;;;;;;;6.38;4.60;;;;;;;;;;4998906;28;20138;-65
2023/02/12 09:06:21;;;;;;;5.40;4.40;;;;;;;;;;4984523;28;20526;-61
2023/02/12 09:08:46;;;;;;;6.13;4.80;;;;;;;;;;5000993;28;20372;-63
2023/02/12 09:11:12;;;;;;;7.13;4.43;;;;;;;;;;4996022;28;20045;-60
2023/02/12 09:13:38;;;;;;;6.00;4.70;;;;;;;;;;4984968;28;20057;-65
2023/02/12 09:16:04;;;;;;;6.60;4.40;;;;;;;;;;4996014;28;20030;-58
2023/02/12 09:18:29;;;;;;;5.78;4.40;;;;;;;;;;4984877;28;20041;-60
2023/02/12 09:20:54;;;;;;;6.10;4.40;;;;;;;;;;4981162;28;20039;-63
2023/02/12 09:23:20;;;;;;;6.65;4.47;;;;;;;;;;4984956;28;20292;-62
2023/02/12 09:25:45;;;;;;;6.40;4.35;;;;;;;;;;4982287;28;20073;-61
2023/02/12 09:28:11;;;;;;;5.60;4.43;;;;;;;;;;4984163;28;20078;-63
2023/02/12 09:30:36;;;;;;;6.10;4.53;;;;;;;;;;4983506;28;20047;-58
2023/02/12 09:33:01;;;;;;;7.00;4.85;;;;;;;;;;4959141;28;20035;-63
2023/02/12 09:35:27;;;;;;;7.68;5.07;;;;;;;;;;4993698;28;20450;-62
2023/02/12 09:37:52;;;;;;;5.53;4.67;;;;;;;;;;4980419;28;20099;-60
2023/02/12 09:40:26;;;;;;;6.28;4.70;;;;;;;;;;4967604;28;20278;-63
2023/02/12 09:43:10;;;;;;;6.30;4.25;;;;;;;;;;4982957;28;20050;-60
2023/02/12 09:45:37;;;;;;;7.55;4.47;;;;;;;;;;4981491;28;20041;-65
2023/02/12 09:48:02;;;;;;;6.43;4.45;;;;;;;;;;4981741;28;20046;-58
2023/02/12 09:50:46;;;;;;;6.27;4.67;;;;;;;;;;4977342;28;20057;-62
2023/02/12 09:53:13;;;;;;;6.55;4.93;;;;;;;;;;4981587;28;20328;-61
2023/02/12 09:55:39;;;;;;;5.75;4.53;;;;;;;;;;4981447;28;20030;-60
2023/02/12 09:58:06;;;;;;;6.30;4.80;;;;;;;;;;4998582;28;20158;-59
2023/02/12 10:00:31;;;;;;;6.63;4.45;;;;;;;;;;4980372;28;20019;-60
2023/02/12 10:02:59;;;;;;;6.57;5.03;;;;;;;;;;4983902;28;20025;-63
2023/02/12 10:05:27;;;;;;;5.85;4.32;;;;;;;;;;4998307;28;20018;-64
2023/02/12 10:07:53;;;;;;;6.50;4.50;;;;;;;;;;4983799;28;20027;-64
2023/02/12 10:10:36;;;;;;;5.83;4.37;;;;;;;;;;5000671;28;20018;-62
2023/02/12 10:13:07;;;;;;;7.07;4.88;;;;;;;;;;4998631;28;20357;-60
2023/02/12 10:15:42;;;;;;;6.63;4.95;;;;;;;;;;4984216;28;20037;-62
2023/02/12 10:18:07;;;;;;;5.63;4.65;;;;;;;;;;4984967;28;20041;-62
2023/02/12 10:20:39;;;;;;;6.23;4.63;;;;;;;;;;4984241;28;20125;-61
2023/02/12 10:23:07;;;;;;;5.85;4.53;;;;;;;;;;4999363;28;20785;-62
2023/02/12 10:25:58;;;;;;;6.13;4.93;;;;;;;;;;4981525;28;20102;-59
2023/02/12 10:28:25;;;;;;;6.18;4.80;;;;;;;;;;4973670;28;20054;-63
2023/02/12 10:30:54;;;;;;;5.50;4.47;;;;;;;;;;4989516;28;20369;-63
2023/02/12 10:33:22;;;;;;;6.65;4.85;;;;;;;;;;4982353;28;20042;-62
2023/02/12 10:35:48;;;;;;;6.43;4.85;;;;;;;;;;4991354;28;20558;-65
2023/02/12 10:38:15;;;;;;;6.95;4.85;;;;;;;;;;4991465;28;20665;-63
2023/02/12 10:40:42;;;;;;;5.07;4.30;;;;;;;;;;4997725;28;20034;-63
2023/02/12 10:43:09;;;;;;;6.22;4.60;;;;;;;;;;4979442;28;20042;-59
2023/02/12 10:45:40;;;;;;;5.38;4.60;;;;;;;;;;4983709;28;20125;-61
2023/02/12 10:48:14;;;;;;;6.63;4.85;;;;;;;;;;4983298;28;20542;-62
2023/02/12 10:50:41;;;;;;;6.25;4.75;;;;;;;;;;4984547;28;20554;-61
2023/02/12 10:53:07;;;;;;;7.43;5.20;;;;;;;;;;4998665;28;20510;-60
2023/02/12 10:55:33;;;;;;;5.47;4.70;;;;;;;;;;4992339;28;20092;-62
2023/02/12 10:57:59;;;;;;;5.82;4.53;;;;;;;;;;4972584;28;20494;-63
2023/02/12 11:00:26;;;;;;;5.90;4.85;;;;;;;;;;4999823;28;20100;-62
2023/02/12 11:03:09;;;;;;;6.05;4.75;;;;;;;;;;4983973;28;20026;-61
2023/02/12 11:05:35;;;;;;;7.38;5.40;;;;;;;;;;4999769;28;20145;-63
2023/02/12 11:08:00;;;;;;;5.97;4.78;;;;;;;;;;4981728;28;20547;-65
2023/02/12 11:10:30;;;;;;;6.40;4.90;;;;;;;;;;4988308;28;20122;-60
2023/02/12 11:12:57;;;;;;;6.00;4.90;;;;;;;;;;4999351;28;20066;-63
2023/02/12 11:15:22;;;;;;;7.65;5.25;;;;;;;;;;4983458;28;20038;-63
2023/02/12 11:18:01;;;;;;;6.90;4.88;;;;;;;;;;4983765;28;20038;-64
2023/02/12 11:20:27;;;;;;;6.10;4.80;;;;;;;;;;4975304;28;20094;-62
2023/02/12 11:22:54;;;;;;;7.90;5.20;;;;;;;;;;5000296;28;20418;-62
2023/02/12 11:25:19;;;;;;;6.85;5.20;;;;;;;;;;4967434;28;20513;-60
2023/02/12 11:27:44;;;;;;;6.97;4.97;;;;;;;;;;4988331;28;20011;-63
2023/02/12 11:30:10;;;;;;;6.78;5.50;;;;;;;;;;4982420;28;20066;-62
2023/02/12 11:32:35;;;;;;;7.18;5.55;;;;;;;;;;4985583;28;20045;-62
2023/02/12 11:35:04;;;;;;;7.93;5.10;;;;;;;;;;4985756;28;20026;-63
2023/02/12 11:37:29;;;;;;;7.88;5.28;;;;;;;;;;4984883;28;20043;-59
2023/02/12 11:39:54;;;;;;;5.45;4.70;;;;;;;;;;4994589;28;20088;-62
2023/02/12 11:42:22;;;;;;;6.43;5.10;;;;;;;;;;4966776;28;20404;-62
2023/02/12 11:44:54;;;;;;;6.57;5.15;;;;;;;;;;5003705;28;20030;-62
2023/02/12 11:47:21;;;;;;;6.10;5.35;;;;;;;;;;4986816;28;20085;-60
2023/02/12 11:49:49;;;;;;;6.22;4.97;;;;;;;;;;4997119;28;20426;-62
2023/02/12 11:52:22;;;;;;;6.28;5.10;;;;;;;;;;5001704;28;20138;-61
2023/02/12 11:54:47;;;;;;;7.03;5.40;;;;;;;;;;4971763;28;20074;-62
2023/02/12 11:57:31;;;;;;;5.72;4.75;;;;;;;;;;4958833;28;20069;-61
2023/02/12 11:59:56;;;;;;;6.93;5.45;;;;;;;;;;4992268;28;20490;-60
2023/02/12 12:02:27;;;;;;;6.05;4.78;;;;;;;;;;4985936;28;20041;-62
2023/02/12 12:04:53;;;;;;;6.95;5.30;;;;;;;;;;4983086;28;20027;-61
2023/02/12 12:07:29;;;;;;;6.38;4.93;;;;;;;;;;4982491;28;20121;-64
2023/02/12 12:10:02;;;;;;;7.45;5.45;;;;;;;;;;4996050;28;20077;-62
2023/02/12 12:12:38;;;;;;;7.05;5.38;;;;;;;;;;4975922;28;20055;-60
2023/02/12 12:20:55;;;;;;;7.55;5.32;;;;;;;;;;4998678;28;20145;-64
2023/02/12 12:23:55;;;;;;;7.78;5.60;;;;;;;;;;4977217;28;20045;-63
2023/02/12 12:26:20;;;;;;;7.80;5.95;;;;;;;;;;4964555;28;20038;-62
2023/02/12 12:29:05;;;;;;;6.77;5.37;;;;;;;;;;4977168;28;20054;-64
2023/02/12 12:31:30;;;;;;;6.78;5.47;;;;;;;;;;4979581;28;20100;-62
2023/02/12 12:33:59;;;;;;;6.40;5.30;;;;;;;;;;4985365;28;20034;-63
2023/02/12 12:36:45;;;;;;;6.82;5.47;;;;;;;;;;4976579;28;20316;-60
2023/02/12 12:39:29;;;;;;;7.13;5.55;;;;;;;;;;4977951;28;20038;-61
2023/02/12 12:42:01;;;;;;;6.63;5.82;;;;;;;;;;5002008;28;20057;-62
2023/02/12 12:44:35;;;;;;;6.47;5.53;;;;;;;;;;4984235;28;20026;-59
2023/02/12 12:47:03;;;;;;;6.68;5.40;;;;;;;;;;4982766;28;20035;-62
2023/02/12 12:49:29;;;;;;;6.15;5.38;;;;;;;;;;4982503;28;20079;-61
2023/02/12 12:51:57;;;;;;;6.30;5.22;;;;;;;;;;4994891;28;20065;-59
2023/02/12 12:54:39;;;;;;;7.43;5.70;;;;;;;;;;5001373;28;20081;-61
2023/02/12 12:57:04;;;;;;;7.25;5.50;;;;;;;;;;5001954;28;20070;-62
2023/02/12 12:59:45;;;;;;;6.30;4.87;;;;;;;;;;5004931;28;20177;-61
2023/02/12 13:02:29;;;;;;;7.13;5.60;;;;;;;;;;5004323;28;20282;-62
2023/02/12 13:04:57;;;;;;;5.95;5.07;;;;;;;;;;5005874;28;20573;-63
2023/02/12 13:07:27;;;;;;;6.32;5.40;;;;;;;;;;4989740;28;20473;-61
2023/02/12 13:09:55;;;;;;;6.78;5.63;;;;;;;;;;5003050;28;20042;-58
2023/02/12 13:12:30;;;;;;;6.95;5.50;;;;;;;;;;4989939;28;20050;-61
2023/02/12 13:14:58;;;;;;;6.65;5.45;;;;;;;;;;4985547;28;20491;-60
2023/02/12 13:17:28;;;;;;;6.80;5.30;;;;;;;;;;4985636;28;20050;-60
2023/02/12 13:19:53;;;;;;;;;;;;;;;;;;4975658;28;20404;-63
2023/02/12 13:22:37;;;;;;;7.77;5.90;;;;;;;;;;4992511;28;19910;-62
2023/02/12 13:25:13;;;;;;;8.30;5.93;;;;;;;;;;4986785;28;20045;-63
2023/02/12 13:27:42;;;;;;;6.68;5.80;;;;;;;;;;5001548;28;20056;-60
2023/02/12 13:30:14;;;;;;;8.32;6.07;;;;;;;;;;5000706;28;20062;-62
2023/02/12 13:32:41;;;;;;;7.93;6.18;;;;;;;;;;5000748;28;20043;-60
2023/02/12 13:35:07;;;;;;;6.22;5.47;;;;;;;;;;5000339;28;20031;-61
2023/02/12 13:37:36;;;;;;;7.07;6.18;;;;;;;;;;4987576;28;20368;-63
2023/02/12 13:40:07;;;;;;;7.88;5.80;;;;;;;;;;4984588;28;20045;-61
2023/02/12 13:42:36;;;;;;;21.98;6.88;;;;;;;;;;4986295;28;20606;-59
2023/02/12 13:45:20;;;;;;;7.37;5.87;;;;;;;;;;5000796;28;20520;-62
2023/02/12 13:48:04;;;;;;;11.20;5.70;;;;;;;;;;5000830;28;20042;-61
2023/02/12 13:50:33;;;;;;;9.05;6.32;;;;;;;;;;4999289;28;20776;-64
2023/02/12 13:53:11;;;;;;;12.15;6.13;;;;;;;;;;5000803;28;20036;-64
2023/02/12 13:56:00;;;;;;;12.18;6.50;;;;;;;;;;4984559;28;20030;-63
2023/02/12 13:58:38;;;;;;;10.40;6.68;;;;;;;;;;4985910;28;20046;-63
2023/02/12 14:01:07;;;;;;;10.38;6.40;;;;;;;;;;5004897;28;20030;-63
2023/02/12 14:03:34;;;;;;;14.02;6.95;;;;;;;;;;4986133;28;20042;-59
2023/02/12 14:06:14;;;;;;;13.60;7.05;;;;;;;;;;4999598;28;20483;-64
2023/02/12 14:08:43;;;;;;;11.23;6.82;;;;;;;;;;4983859;28;20073;-62
2023/02/12 14:11:09;;;;;;;9.33;6.47;;;;;;;;;;5000898;28;20089;-63
2023/02/12 14:13:36;;;;;;;12.82;7.07;;;;;;;;;;5003350;28;20626;-63
2023/02/12 14:16:17;;;;;;;9.93;7.22;;;;;;;;;;4981408;28;20054;-63
2023/02/12 14:18:42;;;;;;;10.73;7.45;;;;;;;;;;4978809;28;20046;-61
2023/02/12 14:21:10;;;;;;;11.68;6.90;;;;;;;;;;4979135;28;20031;-64
2023/02/12 14:23:35;;;;;;;12.15;7.57;;;;;;;;;;4983021;28;20022;-64
2023/02/12 14:26:14;;;;;;;14.68;7.95;;;;;;;;;;4997681;28;20514;-60
2023/02/12 14:28:45;;;;;;;11.95;7.50;;;;;;;;;;4984216;28;20345;-59
2023/02/12 14:31:16;;;;;;;14.38;7.95;;;;;;;;;;4985199;28;20089;-63
2023/02/12 14:33:42;;;;;;;12.73;7.82;;;;;;;;;;5001044;28;20022;-63
2023/02/12 14:36:19;;;;;;;17.17;8.23;;;;;;;;;;4988720;28;20531;-61
2023/02/12 14:38:44;;;;;;;13.38;7.47;;;;;;;;;;4985094;28;20050;-59
2023/02/12 14:41:43;;;;;;;11.60;7.53;;;;;;;;;;5000615;28;20034;-60
2023/02/12 14:44:17;;;;;;;12.63;8.40;;;;;;;;;;4997538;28;20053;-60
2023/02/12 14:46:52;;;;;;;12.98;7.72;;;;;;;;;;5000059;28;20414;-62
2023/02/12 14:49:22;;;;;;;10.68;7.60;;;;;;;;;;4985149;28;20082;-65
2023/02/12 14:52:04;;;;;;;12.15;8.32;;;;;;;;;;4984289;28;20026;-60
2023/02/12 14:54:29;;;;;;;15.75;8.52;;;;;;;;;;4966677;28;20174;-62
2023/02/12 14:56:55;;;;;;;13.32;8.52;;;;;;;;;;4980191;28;20589;-60
2023/02/12 14:59:21;;;;;;;14.32;8.70;;;;;;;;;;4993165;28;20061;-60